createdAt,value
2022-08-03T00:11:23.300Z,100412.33
2022-08-03T00:33:10.911Z,100416.98
2022-08-03T00:54:56.710Z,100416.04
2022-08-03T01:16:53.871Z,100411.05
2022-08-03T01:38:45.118Z,100409.44
2022-08-03T02:00:34.453Z,100402.15
2022-08-03T02:22:20.428Z,100388.48
2022-08-03T02:44:12.165Z,100379.02
2022-08-03T03:05:59.848Z,100388.13
2022-08-03T03:27:48.831Z,100398.60
2022-08-03T03:49:37.516Z,100405.70
2022-08-03T04:11:30.031Z,100407.77
2022-08-03T04:33:18.697Z,100414.58
2022-08-03T04:55:06.008Z,100432.63
2022-08-03T05:16:51.670Z,100437.77
2022-08-03T05:38:38.131Z,100431.30
2022-08-03T06:00:24.328Z,100445.48
2022-08-03T06:22:11.704Z,100450.65
2022-08-03T06:44:02.998Z,100452.94
2022-08-03T07:05:51.343Z,100457.98
2022-08-03T07:27:38.372Z,100450.34
2022-08-03T07:49:24.211Z,100447.84
2022-08-03T08:11:10.329Z,100449.33
2022-08-03T08:32:56.167Z,100452.31
2022-08-03T08:54:44.972Z,100450.08
2022-08-03T09:16:30.935Z,100437.98
2022-08-03T09:38:18.564Z,100419.40
2022-08-03T10:00:14.832Z,100409.48
2022-08-03T10:22:05.212Z,100396.21
2022-08-03T10:43:54.596Z,100380.77
2022-08-03T11:05:42.723Z,100383.31
2022-08-03T11:27:33.269Z,100371.06
2022-08-03T11:49:24.734Z,100369.98
2022-08-03T12:11:12.366Z,100343.23
2022-08-03T12:32:58.476Z,100314.32
2022-08-03T12:54:46.112Z,100301.28
2022-08-03T13:16:32.485Z,100290.98
2022-08-03T13:38:18.498Z,100267.48
2022-08-03T14:00:10.530Z,100248.80
2022-08-03T14:22:03.692Z,100222.15
2022-08-03T14:44:01.624Z,100206.94
2022-08-03T15:05:48.249Z,100188.96
2022-08-03T15:27:34.140Z,100180.30
2022-08-03T15:49:20.899Z,100166.27
2022-08-03T16:11:06.720Z,100170.17
2022-08-03T16:32:52.437Z,100149.10
2022-08-03T16:54:38.345Z,100147.41
2022-08-03T17:16:24.259Z,100157.88
2022-08-03T17:38:15.820Z,100164.40
2022-08-03T18:00:22.959Z,100179.91
2022-08-03T18:22:10.109Z,100197.96
2022-08-03T18:44:07.119Z,100212.86
2022-08-03T19:06:06.988Z,100227.69
2022-08-03T19:28:03.065Z,100239.11
2022-08-03T19:50:06.045Z,100241.83
2022-08-03T20:11:57.636Z,100247.36
2022-08-03T20:33:48.578Z,100257.49
2022-08-03T20:55:47.483Z,100272.35
2022-08-03T21:17:48.221Z,100271.29
2022-08-03T21:39:34.553Z,100268.63
2022-08-03T22:01:23.152Z,100276.30
2022-08-03T22:23:10.566Z,100280.52
2022-08-03T22:44:58.082Z,100277.23
2022-08-03T23:06:46.961Z,100278.17
2022-08-03T23:28:35.613Z,100280.71
2022-08-03T23:50:21.475Z,100289.38
